logo
App data

Rack N Ruin

Chaos reigns in this top down action adventure game starring Rack, a demon with an appetite for destruction. Pave a path of mayhem as you guide Rack on his quest to jump start the Apocalypse. Wield powerful magic, decimate your foes, unravel mind bending puzzles, and smite titanic bosses all while corrupting a vast open world.
Store | Hub | SteamDB | Site
Developer: LifeSpark Entertainment Publisher: LifeSpark Entertainment
Genre: Action, Adventure, Indie, RPG
Languages: English, French, Italian, German, Spanish - Spain
Tags: Action (26), Adventure (24), RPG (23), Indie (23), Villain Protagonist (9)
Category: Single-player, Steam Achievements, Full controller support, Steam Trading Cards, Steam Cloud, Stats
Release date: Sep 1, 2015
Price: $9.99
Old userscore: 78% Owners: 0 .. 20,000
Followers: 1,031
Playtime total: 01:35 (average) 01:35 (median)

Steam Spy is still in beta, so expect major bugs.

Owners data:

Access restricted.

This feature is only available to users with special access rights. Sorry.

If you want to proceed, you need to register or log in first and then back Steam Spy on Patreon. Look for Indie or Pro pledge.

Don't forget to use the same email as on Steam Spy!

Audience in 2 weeks:

Access restricted.

This feature is only available to users with special access rights. Sorry.

If you want to proceed, you need to register or log in first and then back Steam Spy on Patreon. Look for Indie or Pro pledge.

Don't forget to use the same email as on Steam Spy!

Peak daily concurrent players:

CCU data courtesy of SteamDB. Used with permission.

Hourly concurrent players:

Daily Twitch stats:

Hourly Twitch stats:

YouTube:

The views data is based on top 50 videos uploaded last week. Actual number of views might be more than the number shown.

The displayed number of videos uploaded yesterday is limited to 50, so if there were more videos uploaded, the number will still show 50.

If the game has commonly used word as its name (like "FEAR" or "Volume") its number of Youtube views might be wrong.

Games similar to this one:

# Game Release date
Price
Score rank
(Userscore / Metascore)
Owners
Players
Playtime (Median)
1 1775: Rebellion Sep 29, 2016 $24.99N/A (N/A)0 .. 20,0000%00:00 (00:00)
2 Assault on Arnhem Mar 11, 2016 $9.99N/A (N/A)0 .. 20,0000%00:00 (00:00)
3 Neon Chrome Apr 28, 2016 $14.99N/A (N/A/74%)200,000 .. 500,0000%00:00 (00:00)
4 Meridian: Squad 22 Aug 11, 2016 $14.99N/A (N/A)0 .. 20,0000%00:00 (00:00)
5 Legends of Callasia Jun 10, 2016 $14.99N/A (N/A)50,000 .. 100,0000%00:00 (00:00)
6 Mad Bullets Jun 10, 2016 $2.99N/A (N/A)0 .. 20,0000%00:00 (00:00)
7 Control Craft 2 Feb 15, 2016 $2.99N/A (N/A)0 .. 20,0000%00:00 (00:00)
8 Magic Quest May 6, 2016 $1.99N/A (N/A)50,000 .. 100,0000%00:00 (00:00)
9 Banzai Escape Mar 16, 2016 $5.99N/A (N/A)20,000 .. 50,0000%00:00 (00:00)
10 Odd||Even Apr 6, 2016 $0.99N/A (N/A)20,000 .. 50,0000%00:00 (00:00)
11 Story Of the Survivor Feb 17, 2016 $4.99N/A (N/A)50,000 .. 100,0000%00:00 (00:00)
12 Purgatory Jun 22, 2016 $0.49N/A (N/A)100,000 .. 200,0000%00:00 (00:00)
13 Revenge of Roger Rouge Apr 22, 2016 $0.99N/A (N/A)20,000 .. 50,0000%00:00 (00:00)
14 Slash or Die Jun 3, 2016 $2.99N/A (N/A)20,000 .. 50,0000%00:00 (00:00)
15 Scapeland Mar 31, 2016 $3.99N/A (N/A)0 .. 20,0000%00:00 (00:00)
16 Militia Dec 2, 2015 $5.99N/A (N/A)0 .. 20,0000%00:00 (00:00)
17 Envoy Mar 17, 2016 $4.99N/A (N/A)50,000 .. 100,0000%00:00 (00:00)
18 Wickland Nov 14, 2014 $0.99N/A (N/A)50,000 .. 100,0000%00:00 (00:00)
19 Bloodsports.TV Mar 30, 2015 $2.49N/A (N/A/69%)100,000 .. 200,0000%00:00 (00:00)
20 Viking Squad Oct 4, 2016 $14.99N/A (N/A)0 .. 20,0000%00:00 (00:00)
21 Outcast 1.1 Dec 18, 2014 $5.99N/A (N/A)50,000 .. 100,0000%00:00 (00:00)
22 Frozen Synapse Prime Nov 14, 2014 $24.99N/A (N/A/83%)100,000 .. 200,0000%00:00 (00:00)
23 Velocity 2X Aug 19, 2015 $19.99N/A (N/A)50,000 .. 100,0000%00:00 (00:00)
24 4089: Ghost Within Jan 9, 2015 $5.99N/A (N/A)0 .. 20,0000%00:00 (00:00)
25 Strategy & Tactics: Wargame Collection Apr 22, 2016 $9.99N/A (N/A)50,000 .. 100,0000%00:00 (00:00)
26 Robotex Nov 18, 2014 $4.99N/A (N/A)100,000 .. 200,0000%00:00 (00:00)
27 Urja Jan 9, 2015 $9.99N/A (N/A)20,000 .. 50,0000%00:00 (00:00)
28 Executive Assault Jul 17, 2015 $12.99N/A (N/A)50,000 .. 100,0000%00:00 (00:00)
29 Death Ray Manta SE Sep 17, 2015 $1.99N/A (N/A)20,000 .. 50,0000%00:00 (00:00)
30 Survivor Squad: Gauntlets Nov 16, 2015 $4.99N/A (N/A)20,000 .. 50,0000%00:00 (00:00)
31 Headlander Jul 25, 2016 $19.99N/A (N/A/74%)100,000 .. 200,0000%00:00 (00:00)
32 Kaiju-A-GoGo Apr 23, 2015 $9.99N/A (N/A)50,000 .. 100,0000%00:00 (00:00)
33 Toren May 11, 2015 $9.99N/A (N/A/57%)50,000 .. 100,0000%00:00 (00:00)
34 Fortified Feb 3, 2016 $14.99N/A (N/A)500,000 .. 1,000,0000%00:00 (00:00)
35 Skyward Collapse May 23, 2013 $4.99N/A (N/A/64%)100,000 .. 200,0000%00:00 (00:00)
36 Rise of Venice Sep 27, 2013 $19.99N/A (N/A/66%)50,000 .. 100,0000%00:00 (00:00)
37 7 Grand Steps: What Ancients Begat Jun 7, 2013 $19.99N/A (N/A)100,000 .. 200,0000%00:00 (00:00)
38 Sang-Froid - Tales of Werewolves Apr 5, 2013 FreeN/A (N/A/79%)200,000 .. 500,0000%00:00 (00:00)
39 PAC-MAN and the Ghostly Adventures Oct 29, 2013 $19.99N/A (N/A)0 .. 20,0000%00:00 (00:00)
40 Scourge: Outbreak Apr 2, 2014 $5.99N/A (N/A)100,000 .. 200,0000%00:00 (00:00)
41 Bleed Jul 3, 2013 $4.99N/A (N/A)100,000 .. 200,0000%00:00 (00:00)
42 Skulls of the Shogun Jul 29, 2013 $9.99N/A (N/A/72%)100,000 .. 200,0009.09%00:04 (00:01)
43 Wanderlust Adventures Aug 10, 2015 $9.99N/A (N/A)20,000 .. 50,0000%00:00 (00:00)
44 ShootMania Storm Apr 10, 2013 $19.99N/A (N/A/76%)50,000 .. 100,0000%00:00 (00:00)
45 Ittle Dew Jul 23, 2013 $9.99N/A (N/A/67%)100,000 .. 200,0000%00:00 (00:00)
46 Armada 2526 Gold Edition Feb 28, 2013 $3.99N/A (N/A/66%)50,000 .. 100,0000%00:00 (00:00)
47 CastleStorm Jul 29, 2013 $9.99N/A (N/A/73%)100,000 .. 200,0000%00:00 (00:00)
48 Horizon Feb 6, 2014 $29.99N/A (N/A/58%)50,000 .. 100,0000%00:00 (00:00)
49 Jagged Alliance 2 - Wildfire Mar 8, 2004 $6.99N/A (N/A)200,000 .. 500,0000%00:00 (00:00)
50 Anomaly 2 May 15, 2013 $14.99N/A (N/A/77%)200,000 .. 500,0000%00:00 (00:00)
51 Arma Tactics Oct 1, 2013 $8.99N/A (N/A/47%)200,000 .. 500,0000%00:00 (00:00)
52 Lost Planet: Extreme Condition Jun 26, 2007 $14.99N/A (N/A/66%)200,000 .. 500,0000%00:00 (00:00)
53 Syrian Warfare Feb 21, 2017 $3.91N/A (N/A)200,000 .. 500,00016.67%04:30 (01:30)
54 Earth Defense Force: Insect Armageddon Dec 14, 2011 $9.99N/A (N/A/69%)50,000 .. 100,0000%00:00 (00:00)
55 Zombie Camp Aug 1, 2016 N/AN/A (N/A)0 .. 20,0000%00:00 (00:00)
56 Warhammer 40,000: Dawn of War – Winter Assault Jan 1, 2006 $3.24N/A (N/A)500,000 .. 1,000,0000%00:00 (00:00)
57 Mr. Shifty Apr 13, 2017 $14.99N/A (N/A)100,000 .. 200,0000%00:00 (00:00)
58 Supreme Ruler 2020 Gold Jun 17, 2008 $9.99N/A (N/A/65%)50,000 .. 100,0000%00:00 (00:00)
59 ROD: Revolt Of Defense Aug 12, 2016 $0.99N/A (N/A)20,000 .. 50,0000%00:00 (00:00)
60 Supreme Commander Feb 20, 2007 $12.99N/A (N/A/86%)1,000,000 .. 2,000,0000%00:00 (00:00)
61 Quarantine May 24, 2017 $9.99N/A (N/A)0 .. 20,0000%00:00 (00:00)
62 Majesty Gold HD Mar 23, 2001 $2.49N/A (N/A)100,000 .. 200,0000%00:00 (00:00)
63 Battle Time Sep 29, 2016 $0.99N/A (N/A)50,000 .. 100,0000%00:00 (00:00)
64 Prison Tycoon 3: Lockdown Aug 1, 2007 $9.99N/A (N/A)20,000 .. 50,0000%00:00 (00:00)
65 Crazy Forest Jul 6, 2016 $4.99N/A (N/A)100,000 .. 200,0000%00:00 (00:00)
66 Caster Mar 19, 2009 $1.99N/A (N/A)200,000 .. 500,0000%00:00 (00:00)
67 BitMaster Oct 12, 2016 $1.19N/A (N/A)100,000 .. 200,0000%00:00 (00:00)
68 Hunting Unlimited 2008 Sep 1, 2007 $9.99N/A (N/A)20,000 .. 50,0000%00:00 (00:00)
69 Woodle Tree 2: Worlds Sep 16, 2016 $3.99N/A (N/A)50,000 .. 100,0000%00:00 (00:00)
70 Advent Rising Aug 9, 2005 $9.99N/A (N/A/70%)50,000 .. 100,0000%00:00 (00:00)
71 Zombo Buster Rising Oct 2, 2016 $1.99N/A (N/A)20,000 .. 50,0000%00:00 (00:00)
72 Heroes of Might & Magic V: Hammers of Fate Nov 14, 2006 $9.99N/A (N/A/66%)100,000 .. 200,0000%00:00 (00:00)
73 Sorcerer King: Rivals Sep 22, 2016 $19.99N/A (N/A)20,000 .. 50,0000%00:00 (00:00)
74 BloodRayne Sep 9, 2003 $9.99N/A (N/A/65%)50,000 .. 100,0000%00:00 (00:00)
75 Toadled Sep 22, 2016 $0.99N/A (N/A)50,000 .. 100,0000%00:00 (00:00)
76 Nuclear Dawn Sep 26, 2011 $9.99N/A (N/A/71%)200,000 .. 500,0000%00:00 (00:00)
77 Extravaganza Rising Jul 21, 2016 N/AN/A (N/A)20,000 .. 50,0000%00:00 (00:00)
78 Civilization IV: Warlords Jul 24, 2006 $4.99N/A (N/A/84%)1,000,000 .. 2,000,0000%00:00 (00:00)
79 Death's Hangover Jan 20, 2017 $4.99N/A (N/A)50,000 .. 100,0000%00:00 (00:00)
80 Rocket Knight May 11, 2010 $14.99N/A (N/A/63%)0 .. 20,0000%00:00 (00:00)
81 Bulletstorm: Full Clip Edition Apr 7, 2017 $39.99N/A (N/A/76%)100,000 .. 200,0000%00:00 (00:00)
82 Ghost Master Aug 23, 2003 $0.99N/A (N/A/81%)100,000 .. 200,0000%00:00 (00:00)
83 Smithy Jun 3, 2016 $3.99N/A (N/A)20,000 .. 50,0000%00:00 (00:00)
84 Tom Clancy's EndWar Feb 25, 2009 $9.99N/A (N/A/68%)100,000 .. 200,0000%00:00 (00:00)
85 Star Project Aug 4, 2016 $3.99N/A (N/A)20,000 .. 50,0000%00:00 (00:00)
86 Super Cyborg Jul 8, 2015 $4.99N/A (N/A)20,000 .. 50,0000%00:00 (00:00)
87 Spirit of War Mar 12, 2015 $9.99N/A (N/A)20,000 .. 50,0000%00:00 (00:00)
88 Lux Delux May 1, 2015 $9.99N/A (N/A)50,000 .. 100,0000%00:00 (00:00)
89 King of Dragon Pass Jul 28, 2015 $11.99N/A (N/A)20,000 .. 50,0000%00:00 (00:00)
90 Samudai Feb 9, 2015 $0.99N/A (N/A)50,000 .. 100,00014.29%04:05 (02:02)
91 Commander Cool 2 Dec 17, 2015 $2.99N/A (N/A)50,000 .. 100,0000%00:00 (00:00)
92 David. Mar 14, 2014 $1.99N/A (N/A)50,000 .. 100,0000%00:00 (00:00)
93 Cuban Missile Crisis Mar 25, 2015 $4.99N/A (N/A)20,000 .. 50,0000%00:00 (00:00)
94 Rise & Shine Jan 13, 2017 $14.99N/A (N/A)50,000 .. 100,0000%00:00 (00:00)
95 Interloper May 21, 2015 FreeN/A (N/A/77%)20,000 .. 50,0000%00:00 (00:00)
96 BattleLore: Command Mar 31, 2015 $6.99N/A (N/A)0 .. 20,0000%00:00 (00:00)
97 Heaven Forest NIGHTS Mar 14, 2017 $0.99N/A (N/A)200,000 .. 500,0000%00:00 (00:00)
98 Planet of the Eyes Aug 24, 2015 $9.99N/A (N/A/66%)50,000 .. 100,0000%00:00 (00:00)
99 Solar Shifter EX Sep 11, 2015 $4.99N/A (N/A)20,000 .. 50,0000%00:00 (00:00)
100 Cultures - 8th Wonder of the World Mar 26, 2015 $4.99N/A (N/A)100,000 .. 200,0000%00:00 (00:00)
101 Shadows of War Sep 19, 2014 $2.99N/A (N/A)20,000 .. 50,0000%00:00 (00:00)
102 Fort Meow Jun 24, 2015 $7.99N/A (N/A)20,000 .. 50,0000%00:00 (00:00)
103 PixelJunk Shooter Nov 11, 2013 $8.99N/A (N/A/73%)100,000 .. 200,0000%00:00 (00:00)
104 VelocityUltra Dec 12, 2013 $9.99N/A (N/A)20,000 .. 50,0000%00:00 (00:00)
105 Bedlam Oct 13, 2015 $12.99N/A (N/A/54%)100,000 .. 200,0000%00:00 (00:00)
106 ENSLAVED: Odyssey to the West Premium Edition Oct 24, 2013 $19.99N/A (N/A/70%)200,000 .. 500,0000%00:00 (00:00)
107 Last Knight: Rogue Rider Edition Oct 3, 2014 $7.99N/A (N/A)20,000 .. 50,0000%00:00 (00:00)
108 Livelock Aug 30, 2016 $9.99N/A (N/A/73%)50,000 .. 100,0000%00:00 (00:00)
109 SPACECOM Sep 17, 2014 $9.99N/A (N/A/68%)100,000 .. 200,0000%00:00 (00:00)
110 Chainsaw Warrior Oct 7, 2013 $1.24N/A (N/A)100,000 .. 200,0000%00:00 (00:00)
111 Guns n Zombies Oct 30, 2014 $7.99N/A (N/A)100,000 .. 200,0000%00:00 (00:00)
112 Anomaly Warzone Earth Mobile Campaign Nov 6, 2013 $4.99N/A (N/A)100,000 .. 200,0000%00:00 (00:00)
113 Platformines Mar 28, 2014 $9.99N/A (N/A/67%)100,000 .. 200,0000%00:00 (00:00)
114 YAIBA: NINJA GAIDEN Z Mar 21, 2014 $29.99N/A (N/A/49%)20,000 .. 50,0000%00:00 (00:00)
115 Deadly 30 Jan 8, 2014 $4.99N/A (N/A)100,000 .. 200,0000%00:00 (00:00)
116 Zombie Tycoon 2: Brainhov's Revenge Dec 9, 2013 $4.99N/A (N/A)50,000 .. 100,0000%00:00 (00:00)
117 Divinity: Dragon Commander Aug 6, 2013 $39.99N/A (N/A)200,000 .. 500,0000%00:00 (00:00)
118 Hot Tin Roof: The Cat That Wore A Fedora Feb 20, 2015 $14.99N/A (N/A/66%)100,000 .. 200,0000%00:00 (00:00)
119 Sid Meier’s Ace Patrol Aug 27, 2013 $4.99N/A (N/A)500,000 .. 1,000,0000%00:00 (00:00)
120 Defence to death May 11, 2017 $5.99N/A (N/A)20,000 .. 50,0000%00:00 (00:00)
121 Blue Effect VR Sep 29, 2016 $9.99N/A (N/A)0 .. 20,0000%00:00 (00:00)
122 Tank Destroyer Mar 9, 2017 $0.99N/A (N/A)50,000 .. 100,0000%00:00 (00:00)
123 VR Journey Dec 15, 2016 $3.99N/A (N/A)20,000 .. 50,0000%00:00 (00:00)
124 Pain Train 2 Mar 16, 2017 $9.99N/A (N/A)20,000 .. 50,0000%00:00 (00:00)
125 Mysterium: A Psychic Clue Game Jan 12, 2017 $6.99N/A (N/A)50,000 .. 100,0000%00:00 (00:00)
126 One Star Apr 17, 2017 $3.99N/A (N/A)0 .. 20,0000%00:00 (00:00)
127 Cemetery Warrior 3 Feb 3, 2017 $0.99N/A (N/A)20,000 .. 50,0000%00:00 (00:00)
128 rooMaze Mar 3, 2017 $0.79N/A (N/A)100,000 .. 200,0000%00:00 (00:00)
129 Pain Train Jan 11, 2017 $4.99N/A (N/A)50,000 .. 100,0000%00:00 (00:00)
130 Western 1849 Reloaded Feb 10, 2017 $4.99N/A (N/A)20,000 .. 50,0000%00:00 (00:00)
131 Castle Werewolf 3D Feb 7, 2017 $3.99N/A (N/A)20,000 .. 50,0000%00:00 (00:00)
132 Bullet Sorrow VR Apr 17, 2017 $19.99N/A (N/A)0 .. 20,0000%00:00 (00:00)
133 Star Trek: Judgment Rites May 8, 2015 $9.99N/A (N/A)0 .. 20,0000%00:00 (00:00)
134 Jim Power -The Lost Dimension Dec 10, 1993 $4.99N/A (N/A)0 .. 20,0000%00:00 (00:00)
135 Redemption: Saints And Sinners Nov 18, 2016 $0.99N/A (N/A)50,000 .. 100,0000%00:00 (00:00)
136 Gridberd Sep 7, 2015 $6.99N/A (N/A)200,000 .. 500,0000%00:00 (00:00)
137 TASTEE: Lethal Tactics May 10, 2016 $14.99N/A (N/A)20,000 .. 50,0000%00:00 (00:00)
138 Gnumz: Masters of Defense Dec 21, 2015 $4.99N/A (N/A)100,000 .. 200,0000%00:00 (00:00)
139 Disposable Heroes Oct 1, 2015 $1.99N/A (N/A)20,000 .. 50,0000%00:00 (00:00)
140 Spooky Cats Jun 4, 2015 $2.99N/A (N/A)20,000 .. 50,0000%00:00 (00:00)
141 Zombie Zoeds May 20, 2015 $0.99N/A (N/A)200,000 .. 500,0000%00:00 (00:00)
142 Explosionade Sep 23, 2015 $3.99N/A (N/A)0 .. 20,0000%00:00 (00:00)
143 Skyshine's BEDLAM Sep 16, 2015 $19.99N/A (N/A/67%)50,000 .. 100,0000%00:00 (00:00)
144 Defend The Highlands Nov 6, 2015 $9.99N/A (N/A)100,000 .. 200,0000%00:00 (00:00)
145 Adventure in the Tower of Flight Dec 23, 2015 $4.99N/A (N/A)0 .. 20,0000%00:00 (00:00)
146 Island Defense Jul 23, 2015 $1.99N/A (N/A)50,000 .. 100,0000%00:00 (00:00)
147 Pongo May 11, 2015 $0.99N/A (N/A)100,000 .. 200,0000%00:00 (00:00)
148 Devils & Demons Oct 6, 2015 $9.99N/A (N/A)20,000 .. 50,0000%00:00 (00:00)
149 Templar Battleforce Sep 21, 2015 $9.99N/A (N/A)20,000 .. 50,0000%00:00 (00:00)
150 Battlepillars Gold Edition Apr 28, 2014 $4.99N/A (N/A)20,000 .. 50,0000%00:00 (00:00)
151 Meltdown Jun 5, 2014 $6.99N/A (N/A)100,000 .. 200,0000%00:00 (00:00)
152 Ubersoldier II Jul 22, 2008 $9.99N/A (N/A/62%)100,000 .. 200,0000%00:00 (00:00)
153 Shadow Blade: Reload Aug 10, 2015 $9.99N/A (N/A/70%)20,000 .. 50,0000%00:00 (00:00)
154 Disciples Sacred Lands Gold Oct 4, 1999 $0.79N/A (N/A)20,000 .. 50,0000%00:00 (00:00)
155 Z Steel Soldiers Aug 1, 2014 $12.99N/A (N/A)50,000 .. 100,0000%00:00 (00:00)
156 Strategic War in Europe Mar 21, 2014 $14.99N/A (N/A)20,000 .. 50,0000%00:00 (00:00)
157 Z Jul 4, 2014 $6.99N/A (N/A)100,000 .. 200,0000%00:00 (00:00)
158 Super Chibi Knight Jun 24, 2015 $4.99N/A (N/A)50,000 .. 100,0000%00:00 (00:00)
159 Albedo: Eyes from Outer Space Apr 10, 2015 $14.99N/A (N/A/66%)20,000 .. 50,0000%00:00 (00:00)
160 Battleplan: American Civil War Jul 4, 2014 $9.99N/A (N/A/66%)100,000 .. 200,0000%00:00 (00:00)
161 RIVE: Wreck, Hack, Die, Retry! Sep 13, 2016 $14.99N/A (N/A)200,000 .. 500,0000%00:00 (00:00)
162 The Entente Gold Aug 11, 2003 $0.67N/A (N/A)50,000 .. 100,0000%00:00 (00:00)
163 Interplanetary May 12, 2015 N/AN/A (N/A)100,000 .. 200,0000%00:00 (00:00)
164 Meridian: New World Apr 4, 2014 $2.09N/A (N/A/43%)100,000 .. 200,0000%00:00 (00:00)
165 Abalone Apr 23, 2014 $6.99N/A (N/A)20,000 .. 50,0000%00:00 (00:00)
166 Gun Metal Sep 23, 2003 $2.99N/A (N/A)200,000 .. 500,0000%00:00 (00:00)
167 Age of Wonders Oct 2010 $1.19N/A (N/A)100,000 .. 200,0000%00:00 (00:00)
168 Star Wolves 3: Civil War Mar 2, 2010 $4.99N/A (N/A)100,000 .. 200,0000%00:00 (00:00)
169 Age of Wonders Shadow Magic Oct 2010 $1.99N/A (N/A/82%)100,000 .. 200,0000%00:00 (00:00)
170 Theatre of War 2: Africa 1943 Apr 24, 2009 $4.99N/A (N/A/63%)100,000 .. 200,0000%00:00 (00:00)
171 Monday Night Combat Jan 24, 2011 $4.99N/A (N/A/82%)200,000 .. 500,0000%00:00 (00:00)
172 Theatre of War 2: Kursk 1943 Mar 9, 2010 $4.99N/A (N/A)50,000 .. 100,0000%00:00 (00:00)
173 Swords and Soldiers HD Dec 2, 2010 $9.99N/A (N/A)200,000 .. 500,0000%00:00 (00:00)
174 Greed Corp Dec 10, 2010 $9.99N/A (N/A/76%)200,000 .. 500,0000%00:00 (00:00)
175 LEGO Indiana Jones 2: The Adventure Continues Feb 18, 2010 $19.99N/A (N/A/66%)50,000 .. 100,0000%00:00 (00:00)
176 Atom Zombie Smasher Mar 14, 2011 $9.99N/A (N/A/75%)200,000 .. 500,0000%00:00 (00:00)
177 Delta Force 2 Oct 31, 1999 $4.99N/A (N/A)20,000 .. 50,0000%00:00 (00:00)
178 Patrician IV - Steam Special Edition Sep 17, 2010 $14.99N/A (N/A/66%)100,000 .. 200,0000%00:00 (00:00)
179 Disciples III - Renaissance Steam Special Edition Jul 16, 2010 $14.99N/A (N/A/56%)200,000 .. 500,0000%00:00 (00:00)
180 Dungeons Feb 10, 2011 $9.99N/A (N/A/65%)200,000 .. 500,0000%00:00 (00:00)
181 Sword of the Stars II: Enhanced Edition Nov 30, 2012 $4.99N/A (N/A/65%)100,000 .. 200,0000%00:00 (00:00)
182 A Game of Thrones - Genesis Sep 29, 2011 $9.99N/A (N/A)100,000 .. 200,0000%00:00 (00:00)
183 Dead Rising 2: Off the Record Oct 11, 2011 $19.99N/A (N/A/66%)200,000 .. 500,0000%00:00 (00:00)
184 Tcheco in the Castle of Lucio Jun 22, 2015 $0.99N/A (N/A)50,000 .. 100,0000%00:00 (00:00)
185 FIVE: Guardians of David Nov 24, 2015 $9.99N/A (N/A/66%)20,000 .. 50,0000%00:00 (00:00)
186 Valley Aug 24, 2016 $19.99N/A (N/A)200,000 .. 500,0000%00:00 (00:00)
187 Steel Rain Dec 3, 2015 $9.99N/A (N/A)20,000 .. 50,0000%00:00 (00:00)
188 Lost in Paradise Aug 20, 2015 $2.99N/A (N/A)20,000 .. 50,0000%00:00 (00:00)
189 Rubber and Lead Sep 4, 2015 $4.99N/A (N/A)50,000 .. 100,0000%00:00 (00:00)
190 Hydraulic Empire Jul 31, 2015 $7.99N/A (N/A)0 .. 20,0000%00:00 (00:00)
191 Toy Odyssey: The Lost and Found Sep 20, 2016 $14.99N/A (N/A/66%)20,000 .. 50,0000%00:00 (00:00)
192 Kidnapped Aug 4, 2015 $2.99N/A (N/A)100,000 .. 200,0000%00:00 (00:00)
193 Square Brawl Oct 22, 2015 $4.99N/A (N/A)0 .. 20,0000%00:00 (00:00)
194 Zombie Party Jun 10, 2016 $9.99N/A (N/A)100,000 .. 200,0000%00:00 (00:00)
195 Miracle Fly Oct 26, 2015 $7.99N/A (N/A)20,000 .. 50,0000%00:00 (00:00)
196 Vampire of the Sands Jul 17, 2015 $4.99N/A (N/A)20,000 .. 50,0000%00:00 (00:00)
197 Little Big Adventure 2 Oct 20, 2015 $3.99N/A (N/A)20,000 .. 50,0000%00:00 (00:00)
198 Vendetta - Curse of Raven's Cry Nov 20, 2015 $29.99N/A (N/A)500,000 .. 1,000,0000%00:00 (00:00)
199 Biodrone Battle Jul 16, 2015 $1.99N/A (N/A)100,000 .. 200,0000%00:00 (00:00)
200 Rise: Battle Lines Nov 17, 2015 N/AN/A (N/A)0 .. 20,0000%00:00 (00:00)
201 Brigade E5: New Jagged Union Oct 17, 2006 $3.99N/A (N/A/41%)20,000 .. 50,0000%00:00 (00:00)
202 Perimeter: Emperor's Testament Aug 29, 2006 $3.99N/A (N/A/72%)20,000 .. 50,0000%00:00 (00:00)
203 Viktor Jun 13, 2014 $7.99N/A (N/A)20,000 .. 50,0000%00:00 (00:00)
204 Perimeter May 21, 2004 $3.99N/A (N/A/77%)20,000 .. 50,0000%00:00 (00:00)
205 Orbital Gear Aug 7, 2014 $9.99N/A (N/A/59%)200,000 .. 500,0000%00:00 (00:00)
206 7,62 High Calibre Aug 24, 2007 $4.99N/A (N/A)50,000 .. 100,0000%00:00 (00:00)
207 Rooks Keep Dec 5, 2014 $7.99N/A (N/A)0 .. 20,0000%00:00 (00:00)
208 The Fall May 30, 2014 $9.99N/A (N/A/76%)200,000 .. 500,0000%00:00 (00:00)
209 Psichodelya Aug 8, 2014 $1.99N/A (N/A)100,000 .. 200,0000%00:00 (00:00)
210 Royal Defense Nov 6, 2014 $4.99N/A (N/A)100,000 .. 200,0000%00:00 (00:00)
211 Kick-Ass 2 Aug 15, 2014 $19.99N/A (N/A)20,000 .. 50,0000%00:00 (00:00)
212 Elliot Quest Nov 10, 2014 $9.99N/A (N/A)20,000 .. 50,0000%00:00 (00:00)
213 Nux Dec 26, 2006 $6.99N/A (N/A)200,000 .. 500,0000%00:00 (00:00)
214 Merchants of Kaidan Nov 10, 2014 $14.99N/A (N/A)100,000 .. 200,0000%00:00 (00:00)
215 Enemy Mind Jun 6, 2014 $9.99N/A (N/A)100,000 .. 200,0000%00:00 (00:00)
216 Olympia Rising Jul 23, 2015 $4.99N/A (N/A)20,000 .. 50,0000%00:00 (00:00)
217 Strike Suit Zero: Director's Cut Apr 8, 2014 $19.99N/A (N/A)50,000 .. 100,0000%00:00 (00:00)
218 Ace of Protectors Jun 27, 2016 $1.99N/A (N/A)20,000 .. 50,0000%00:00 (00:00)
219 Knight Adventure Oct 15, 2015 $0.99N/A (N/A)50,000 .. 100,0000%00:00 (00:00)
220 Prospekt Feb 18, 2016 $9.99N/A (N/A/43%)20,000 .. 50,0000%00:00 (00:00)
221 Death by Game Show Jan 22, 2016 $1.99N/A (N/A)20,000 .. 50,0000%00:00 (00:00)
222 Quick Slick Deadly Sep 21, 2015 $0.99N/A (N/A)20,000 .. 50,0000%00:00 (00:00)
223 Galaxy Admirals Jan 17, 2017 $1.99N/A (N/A)100,000 .. 200,0000%00:00 (00:00)
224 Reverse Crawl Sep 24, 2015 $5.99N/A (N/A)20,000 .. 50,0000%00:00 (00:00)
225 Monster Monpiece Mar 14, 2017 $9.99N/A (N/A)0 .. 20,0000%00:00 (00:00)
226 The Juicer Sep 6, 2012 $0.99N/A (N/A)20,000 .. 50,0000%00:00 (00:00)
227 Goblin Defenders: Steel‘n’ Wood Aug 21, 2013 $2.99N/A (N/A)20,000 .. 50,0000%00:00 (00:00)
228 The Aquatic Adventure of the Last Human Jan 19, 2016 $9.99N/A (N/A/76%)20,000 .. 50,0000%00:00 (00:00)
229 UnSummoning: the Spectral Horde Dec 21, 2015 FreeN/A (N/A)0 .. 20,0000%00:00 (00:00)
230 Sky To Fly: Faster Than Wind Mar 25, 2016 $3.99N/A (N/A)0 .. 20,0000%00:00 (00:00)
231 Gurgamoth Feb 16, 2016 $9.99N/A (N/A)20,000 .. 50,0000%00:00 (00:00)
232 The Political Machine 2016 Feb 4, 2016 $9.99N/A (N/A)50,000 .. 100,0000%00:00 (00:00)
233 Protoshift Jan 15, 2016 $0.99N/A (N/A)0 .. 20,0000%00:00 (00:00)
234 Crush Your Enemies Jul 13, 2016 $9.99N/A (N/A/63%)20,000 .. 50,0000%00:00 (00:00)
235 Foresight Nov 28, 2014 $4.99N/A (N/A)20,000 .. 50,0000%00:00 (00:00)
236 Airship Dragoon Aug 26, 2014 $19.99N/A (N/A)0 .. 20,0000%00:00 (00:00)
237 A.R.E.S. Extinction Agenda EX Oct 3, 2014 $9.99N/A (N/A)0 .. 20,0000%00:00 (00:00)
238 The Nightmare Cooperative Jul 16, 2014 $4.99N/A (N/A)50,000 .. 100,0000%00:00 (00:00)
239 Stonerid Dec 18, 2013 $4.99N/A (N/A)20,000 .. 50,0000%00:00 (00:00)
240 The Way May 20, 2016 $14.99N/A (N/A/67%)100,000 .. 200,0000%00:00 (00:00)
241 Prophour23 Oct 22, 2014 $9.99N/A (N/A)20,000 .. 50,0000%00:00 (00:00)
242 Battle Mages: Sign of Darkness Apr 13, 2006 $4.99N/A (N/A)20,000 .. 50,0000%00:00 (00:00)
243 Platypus II Mar 17, 2007 $6.99N/A (N/A)200,000 .. 500,0000%00:00 (00:00)
244 Super Trench Attack! Jul 24, 2014 $4.99N/A (N/A)100,000 .. 200,0000%00:00 (00:00)
245 Gold Rush! Anniversary Nov 7, 2014 $5.99N/A (N/A)100,000 .. 200,0000%00:00 (00:00)
246 Spirits of Xanadu Mar 26, 2015 $4.99N/A (N/A)50,000 .. 100,0000%00:00 (00:00)
247 Deadlings: Rotten Edition Nov 11, 2014 $3.99N/A (N/A)50,000 .. 100,0000%00:00 (00:00)
248 Ys VI: The Ark of Napishtim Apr 28, 2015 $19.99N/A (N/A/76%)50,000 .. 100,0000%00:00 (00:00)
249 Othello Mar 19, 2015 N/AN/A (N/A)20,000 .. 50,0000%00:00 (00:00)
250 Khet 2.0 Oct 1, 2014 $9.99N/A (N/A)50,000 .. 100,0000%00:00 (00:00)
251 Gold Rush! Classic Dec 23, 1988 $2.99N/A (N/A)200,000 .. 500,0000%00:00 (00:00)
252 Men of War: Condemned Heroes Apr 12, 2012 $7.99N/A (N/A/57%)100,000 .. 200,0000%00:00 (00:00)
253 Star Ruler Sep 20, 2010 $9.99N/A (N/A)100,000 .. 200,0000%00:00 (00:00)
254 Jagged Alliance: Crossfire Aug 24, 2012 $14.99N/A (N/A/63%)100,000 .. 200,0000%00:00 (00:00)
255 Sengoku Sep 15, 2011 $1.99N/A (N/A/70%)100,000 .. 200,0000%00:00 (00:00)
256 Warlock 2: The Exiled Apr 10, 2014 $4.99N/A (N/A/73%)50,000 .. 100,0000%00:00 (00:00)
257 A.R.E.S.: Extinction Agenda Jan 20, 2011 $4.99N/A (N/A/68%)100,000 .. 200,0000%00:00 (00:00)
258 Conflict Desert Storm Sep 13, 2002 $6.99N/A (N/A/56%)50,000 .. 100,0000%00:00 (00:00)
259 Gatling Gears Aug 30, 2011 $9.99N/A (N/A)20,000 .. 50,0000%00:00 (00:00)
260 Call of Duty: Black Ops - Mac Edition Sep 27, 2012 N/AN/A (N/A)50,000 .. 100,0000%00:00 (00:00)
261 Warp Mar 21, 2012 $9.99N/A (N/A)20,000 .. 50,0000%00:00 (00:00)
262 Painkiller Hell & Damnation Oct 31, 2012 $19.99N/A (N/A/64%)500,000 .. 1,000,0000%00:00 (00:00)
263 A Game of Dwarves Oct 23, 2012 $1.99N/A (N/A/60%)100,000 .. 200,0000%00:00 (00:00)
264 Zeno Clash 2 Apr 30, 2013 $14.99N/A (N/A)200,000 .. 500,0000%00:00 (00:00)
265 Dungeons - The Dark Lord Sep 27, 2011 $19.99N/A (N/A/72%)100,000 .. 200,0000%00:00 (00:00)
266 Men of War: Vietnam Sep 8, 2011 $7.99N/A (N/A/68%)200,000 .. 500,0000%00:00 (00:00)
267 Disciples III - Resurrection Oct 11, 2011 $14.99N/A (N/A/63%)100,000 .. 200,0000%00:00 (00:00)
268 Carrier Command: Gaea Mission Sep 28, 2012 $32.99N/A (N/A/60%)200,000 .. 500,0000%00:00 (00:00)

Tags over time:

Access restricted.

This feature is only available to users with special access rights. Sorry.

If you want to proceed, you need to register or log in first and then back Steam Spy on Patreon. Look for Indie or Pro pledge.

Don't forget to use the same email as on Steam Spy!

Owners of this game also own:

Access restricted.

This feature is only available to users with special access rights. Sorry.

If you want to proceed, you need to register or log in first and then back Steam Spy on Patreon. Look for Indie or Pro pledge.

Don't forget to use the same email as on Steam Spy!

Playtime distribution:

Access restricted.

This feature is only available to users with special access rights. Sorry.

If you want to proceed, you need to register or log in first and then back Steam Spy on Patreon. Look for Indie or Pro pledge.

Don't forget to use the same email as on Steam Spy!

Playtime (2 weeks):

Access restricted.

This feature is only available to users with special access rights. Sorry.

If you want to proceed, you need to register or log in first and then back Steam Spy on Patreon. Look for Indie or Pro pledge.

Don't forget to use the same email as on Steam Spy!

User reviews:

Login required.

Please register or log in to see this information.